createdAt,value
2023-03-16T00:05:00.462Z,2.20
2023-03-16T00:11:02.718Z,2.40
2023-03-16T00:17:06.254Z,2.40
2023-03-16T00:23:07.834Z,2.27
2023-03-16T00:29:11.917Z,2.17
2023-03-16T00:35:13.451Z,2.40
2023-03-16T00:41:15.565Z,2.50
2023-03-16T00:47:17.073Z,2.35
2023-03-16T00:53:18.528Z,3.07
2023-03-16T00:59:21.397Z,2.90
2023-03-16T01:05:23.012Z,2.63
2023-03-16T01:11:26.936Z,2.50
2023-03-16T01:17:28.406Z,2.72
2023-03-16T01:23:30.433Z,2.47
2023-03-16T01:29:33.184Z,2.73
2023-03-16T01:35:34.943Z,2.45
2023-03-16T01:41:37.881Z,2.37
2023-03-16T01:47:39.869Z,2.42
2023-03-16T01:53:48.990Z,2.13
2023-03-16T01:59:53.508Z,2.27
2023-03-16T02:05:59.428Z,2.20
2023-03-16T02:12:01.588Z,1.93
2023-03-16T02:18:05.679Z,2.00
2023-03-16T02:24:07.358Z,2.33
2023-03-16T02:30:09.821Z,2.30
2023-03-16T02:36:20.839Z,2.47
2023-03-16T02:42:24.062Z,2.70
2023-03-16T02:48:38.018Z,2.55
2023-03-16T02:54:42.109Z,2.40
2023-03-16T03:00:45.451Z,2.47
2023-03-16T03:06:50.013Z,2.83
2023-03-16T03:12:51.997Z,2.53
2023-03-16T03:18:53.678Z,2.70
2023-03-16T03:24:55.360Z,2.60
2023-03-16T03:30:57.299Z,2.30
2023-03-16T03:36:58.910Z,3.20
2023-03-16T03:43:01.500Z,3.00
2023-03-16T03:49:05.342Z,2.70
2023-03-16T03:55:10.091Z,2.93
2023-03-16T04:01:11.572Z,2.73
2023-03-16T04:07:13.151Z,3.10
2023-03-16T04:13:16.416Z,2.87
2023-03-16T04:19:18.007Z,2.65
2023-03-16T04:25:19.971Z,3.20
2023-03-16T04:31:23.526Z,2.60
2023-03-16T04:37:27.053Z,2.80
2023-03-16T04:43:29.533Z,3.03
2023-03-16T04:49:37.816Z,2.80
2023-03-16T04:55:39.458Z,2.43
2023-03-16T05:01:43.526Z,3.05
2023-03-16T05:07:46.136Z,3.08
2023-03-16T05:13:49.196Z,3.40
2023-03-16T05:19:50.968Z,3.67
2023-03-16T05:25:54.419Z,3.10
2023-03-16T05:31:59.351Z,3.50
2023-03-16T05:38:02.690Z,4.55
2023-03-16T05:44:06.231Z,4.60
2023-03-16T05:50:26.698Z,3.85
2023-03-16T05:56:28.695Z,3.47
2023-03-16T06:02:31.056Z,4.10
2023-03-16T06:08:32.807Z,4.32
2023-03-16T06:14:46.428Z,4.20
2023-03-16T06:20:48.672Z,4.00
2023-03-16T06:26:50.296Z,3.93
2023-03-16T06:32:53.883Z,3.77
2023-03-16T06:38:55.632Z,3.35
2023-03-16T06:45:05.246Z,3.63
2023-03-16T06:51:07.648Z,4.10
2023-03-16T06:57:11.622Z,3.53
2023-03-16T07:03:13.739Z,3.37
2023-03-16T07:09:21.954Z,3.38
2023-03-16T07:15:26.540Z,3.40
2023-03-16T07:21:38.989Z,3.70
2023-03-16T07:27:45.383Z,3.63
2023-03-16T07:33:48.261Z,3.20
2023-03-16T07:39:57.687Z,3.25
2023-03-16T07:46:01.466Z,2.83
2023-03-16T07:52:04.064Z,2.90
2023-03-16T07:58:12.773Z,3.40
2023-03-16T08:04:16.712Z,3.43
2023-03-16T08:10:19.198Z,3.53
2023-03-16T08:16:29.386Z,4.83
2023-03-16T08:22:32.639Z,4.57
2023-03-16T08:28:35.500Z,4.18
2023-03-16T08:34:42.093Z,3.67
2023-03-16T08:40:48.354Z,2.95
2023-03-16T08:46:51.841Z,2.80
2023-03-16T08:52:54.315Z,2.67
2023-03-16T08:58:57.820Z,2.63
2023-03-16T09:04:59.217Z,3.10
2023-03-16T09:11:05.595Z,2.35
2023-03-16T09:17:11.600Z,1.70
2023-03-16T09:23:13.972Z,1.75
2023-03-16T09:29:16.552Z,1.40
2023-03-16T09:35:20.895Z,1.00
2023-03-16T09:41:22.428Z,2.13
2023-03-16T09:47:26.554Z,1.60
2023-03-16T09:53:30.822Z,1.38
2023-03-16T09:59:32.585Z,1.33
2023-03-16T10:05:35.470Z,1.00
2023-03-16T10:11:41.912Z,1.10
2023-03-16T10:17:46.614Z,0.97
2023-03-16T10:23:51.033Z,1.00
2023-03-16T10:29:53.999Z,1.13
2023-03-16T10:35:57.894Z,0.80
2023-03-16T10:41:59.319Z,1.20
2023-03-16T10:48:14.606Z,1.50
2023-03-16T10:54:23.504Z,1.20
2023-03-16T11:00:30.898Z,1.00
2023-03-16T11:06:32.920Z,1.70
2023-03-16T11:12:34.854Z,4.45
2023-03-16T11:18:43.475Z,1.30
2023-03-16T11:24:50.524Z,1.27
2023-03-16T11:31:04.199Z,1.20
2023-03-16T11:37:25.950Z,0.90
2023-03-16T11:43:37.951Z,0.93
2023-03-16T11:49:42.850Z,0.80
2023-03-16T11:56:03.395Z,0.90
2023-03-16T12:02:19.469Z,1.10
2023-03-16T12:08:27.112Z,0.87
2023-03-16T12:14:57.652Z,0.88
2023-03-16T12:21:06.442Z,0.90
2023-03-16T12:27:11.890Z,0.90
2023-03-16T12:33:18.113Z,1.05
2023-03-16T12:39:29.767Z,0.97
2023-03-16T12:45:38.490Z,0.90
2023-03-16T12:51:41.481Z,1.37
2023-03-16T12:57:43.792Z,1.42
2023-03-16T13:03:48.019Z,1.40
2023-03-16T13:10:02.431Z,1.00
2023-03-16T13:16:06.828Z,0.75
2023-03-16T13:22:19.701Z,1.07
2023-03-16T13:28:26.624Z,0.90
2023-03-16T13:34:28.507Z,0.93
2023-03-16T13:40:30.227Z,1.10
2023-03-16T13:46:31.971Z,1.13
2023-03-16T13:52:34.730Z,0.90
2023-03-16T13:58:37.745Z,0.93
2023-03-16T14:04:39.315Z,1.00
2023-03-16T14:10:41.891Z,1.27
2023-03-16T14:16:44.591Z,1.00
2023-03-16T14:22:46.271Z,0.93
2023-03-16T14:29:01.834Z,0.80
2023-03-16T14:35:10.964Z,1.10
2023-03-16T14:41:12.385Z,0.90
2023-03-16T14:47:24.386Z,1.20
2023-03-16T14:53:28.373Z,1.30
2023-03-16T14:59:29.937Z,1.35
2023-03-16T15:05:36.972Z,1.15
2023-03-16T15:11:38.914Z,1.10
2023-03-16T15:17:40.291Z,1.30
2023-03-16T15:23:42.902Z,1.47
2023-03-16T15:29:44.335Z,1.20
2023-03-16T15:35:46.944Z,1.10
2023-03-16T15:41:48.671Z,1.10
2023-03-16T15:47:51.663Z,1.20
2023-03-16T15:53:54.405Z,1.07
2023-03-16T15:59:57.334Z,0.65
2023-03-16T16:05:59.341Z,2.03
2023-03-16T16:12:00.966Z,1.20
2023-03-16T16:18:20.851Z,1.10
2023-03-16T16:24:25.135Z,1.20
2023-03-16T16:30:31.564Z,1.63
2023-03-16T16:36:33.018Z,1.05
2023-03-16T16:42:34.573Z,1.37
2023-03-16T16:48:38.082Z,1.65
2023-03-16T16:54:40.155Z,1.50
2023-03-16T17:00:44.394Z,1.70
2023-03-16T17:06:46.102Z,2.05
2023-03-16T17:12:49.286Z,2.10
2023-03-16T17:18:50.710Z,2.00
2023-03-16T17:24:52.985Z,1.97
2023-03-16T17:30:54.490Z,1.73
2023-03-16T17:36:56.352Z,1.67
2023-03-16T17:42:58.382Z,1.80
2023-03-16T17:49:01.866Z,2.15
2023-03-16T17:55:04.180Z,2.30
2023-03-16T18:01:07.228Z,2.70
2023-03-16T18:07:14.154Z,2.63
2023-03-16T18:13:20.690Z,2.40
2023-03-16T18:19:24.515Z,2.55
2023-03-16T18:25:34.038Z,2.97
2023-03-16T18:31:35.644Z,2.95
2023-03-16T18:37:38.443Z,2.95
2023-03-16T18:43:40.401Z,2.70
2023-03-16T18:49:47.090Z,2.40
2023-03-16T18:55:49.473Z,2.47
2023-03-16T19:01:51.805Z,2.40
2023-03-16T19:07:54.380Z,2.75
2023-03-16T19:13:57.628Z,2.83
2023-03-16T19:19:59.397Z,2.88
2023-03-16T19:26:01.510Z,2.97
2023-03-16T19:32:05.657Z,3.05
2023-03-16T19:38:07.430Z,2.80
2023-03-16T19:44:14.729Z,3.00
2023-03-16T19:50:18.706Z,3.22
2023-03-16T19:56:21.758Z,4.57
2023-03-16T20:02:38.306Z,3.72
2023-03-16T20:08:40.040Z,3.45
2023-03-16T20:14:42.237Z,3.57
2023-03-16T20:20:45.300Z,4.30
2023-03-16T20:26:48.352Z,4.07
2023-03-16T20:32:50.757Z,3.78
2023-03-16T20:38:52.275Z,4.07
2023-03-16T20:44:53.828Z,3.87
2023-03-16T20:50:56.246Z,3.55
2023-03-16T20:56:58.333Z,3.83
2023-03-16T21:03:01.612Z,3.80
2023-03-16T21:09:03.452Z,3.85
2023-03-16T21:15:14.821Z,4.07
2023-03-16T21:21:17.242Z,5.22
2023-03-16T21:27:24.329Z,3.63
2023-03-16T21:33:27.133Z,3.45
2023-03-16T21:39:28.744Z,3.80
2023-03-16T21:45:30.645Z,3.97
2023-03-16T21:51:32.342Z,4.30
2023-03-16T21:57:33.741Z,4.07
2023-03-16T22:03:50.149Z,4.00
2023-03-16T22:09:52.523Z,3.90
2023-03-16T22:15:57.581Z,3.50
2023-03-16T22:21:59.234Z,3.90
2023-03-16T22:28:00.919Z,3.87
2023-03-16T22:34:03.323Z,3.95
2023-03-16T22:40:07.411Z,3.72
2023-03-16T22:46:17.275Z,3.83
2023-03-16T22:52:19.071Z,4.25
2023-03-16T22:58:27.518Z,3.40
2023-03-16T23:04:30.300Z,3.80
2023-03-16T23:10:32.288Z,3.47
2023-03-16T23:16:35.802Z,3.80
2023-03-16T23:22:37.237Z,3.42
2023-03-16T23:28:38.803Z,3.83
2023-03-16T23:34:40.504Z,3.80
2023-03-16T23:40:42.037Z,3.78
2023-03-16T23:46:43.483Z,3.43
2023-03-16T23:52:44.950Z,3.03
2023-03-16T23:58:46.538Z,3.20
